Terminal Aerodrome Forecast
Issued by NWS

Home | Current Version | Previous Version | Text Only | Print | Product List | Glossary On
Versions: 1 2 3 4 5 6 7 8 9 10 11 12 13 14
177
FTAK31 PAJN 171933 AAA
TAFAPG
TAF AMD
PAPG 171933Z 1720/1818 08008KT 4SM -SN BR BKN025 OVC030
      WS015/14030KT
      TEMPO 1720/1722 1SM -SN BR BKN015 OVC025
     FM172200 VRB05KT 1 1/2SM -SN BR BKN015 OVC025 WS020/14040KT
     FM180400 VRB04KT 3SM -SHSN SCT006 BKN012 OVC020 WS020/15025KT
      AMD LTD TO CLD VIS AND WIND 1806/1815=

USA.gov is the U.S. government's official web portal to all federal, state and local government web resources and services.